Time;durP1;ratioP1;P1;durP2;ratioP2;P2;SDS_P1;SDS_P2;PMS_P1;PMS_P2;Temp;Humidity;BMP_temperature;BMP_pressure;BME280_temperature;BME280_humidity;BME280_pressure;Samples;Min_cycle;Max_cycle;Signal;HPM_P1;HPM_P2
2023/06/07 00:02:22;;;;;;;3.15;2.08;;;;;;;;;;5092928;28;20079;-81
2023/06/07 00:04:48;;;;;;;2.38;2.15;;;;;;;;;;5092682;28;20028;-81
2023/06/07 00:07:13;;;;;;;4.40;2.28;;;;;;;;;;5092632;28;20032;-81
2023/06/07 00:09:39;;;;;;;4.80;2.53;;;;;;;;;;5094051;28;20032;-81
2023/06/07 00:12:06;;;;;;;2.75;2.33;;;;;;;;;;5075990;28;20035;-81
2023/06/07 00:14:31;;;;;;;4.03;2.45;;;;;;;;;;5094295;28;20053;-81
2023/06/07 00:16:58;;;;;;;3.83;2.50;;;;;;;;;;5059253;28;20027;-81
2023/06/07 00:19:25;;;;;;;5.78;2.42;;;;;;;;;;5094045;28;20032;-81
2023/06/07 00:21:54;;;;;;;4.10;2.30;;;;;;;;;;5075841;28;20020;-81
2023/06/07 00:24:19;;;;;;;2.65;2.08;;;;;;;;;;5092592;28;20073;-81
2023/06/07 00:26:45;;;;;;;4.20;2.33;;;;;;;;;;5075972;28;20206;-81
2023/06/07 00:29:11;;;;;;;4.30;2.28;;;;;;;;;;5059034;28;20113;-81
2023/06/07 00:31:36;;;;;;;5.85;2.47;;;;;;;;;;5075451;28;20020;-81
2023/06/07 00:34:02;;;;;;;3.70;2.10;;;;;;;;;;5094439;28;20130;-82
2023/06/07 00:36:29;;;;;;;4.00;2.53;;;;;;;;;;5092622;28;20068;-81
2023/06/07 00:38:54;;;;;;;3.00;2.05;;;;;;;;;;5093861;28;20032;-81
2023/06/07 00:41:20;;;;;;;3.95;2.13;;;;;;;;;;5092471;28;20034;-81
2023/06/07 00:43:47;;;;;;;4.22;2.17;;;;;;;;;;5092685;28;20038;-82
2023/06/07 00:46:14;;;;;;;4.78;2.17;;;;;;;;;;5092463;28;20058;-82
2023/06/07 00:48:40;;;;;;;3.33;2.00;;;;;;;;;;5092544;28;20036;-82
2023/06/07 00:51:05;;;;;;;3.67;2.08;;;;;;;;;;5093147;28;20047;-82
2023/06/07 00:53:31;;;;;;;4.22;2.33;;;;;;;;;;5092204;28;20429;-83
2023/06/07 00:55:57;;;;;;;3.47;2.20;;;;;;;;;;5093953;28;20546;-82
2023/06/07 00:58:24;;;;;;;4.22;2.15;;;;;;;;;;5075171;28;20047;-82
2023/06/07 01:00:49;;;;;;;3.38;2.15;;;;;;;;;;5075494;28;20029;-82
2023/06/07 01:03:15;;;;;;;2.95;2.10;;;;;;;;;;5075119;28;20122;-82
2023/06/07 01:05:41;;;;;;;4.72;2.30;;;;;;;;;;5093478;28;20028;-82
2023/06/07 01:08:07;;;;;;;3.25;2.05;;;;;;;;;;5092333;28;20074;-82
2023/06/07 01:10:33;;;;;;;3.60;2.17;;;;;;;;;;5092413;28;20028;-82
2023/06/07 01:13:03;;;;;;;4.35;1.95;;;;;;;;;;5092277;28;20058;-81
2023/06/07 01:15:28;;;;;;;2.88;2.10;;;;;;;;;;5075611;28;20115;-81
2023/06/07 01:17:54;;;;;;;2.88;1.80;;;;;;;;;;5059097;28;20055;-81
2023/06/07 01:20:23;;;;;;;2.75;2.20;;;;;;;;;;5092099;28;20032;-80
2023/06/07 01:22:51;;;;;;;2.72;2.03;;;;;;;;;;5075044;28;20024;-80
2023/06/07 01:25:16;;;;;;;3.00;2.00;;;;;;;;;;5092366;28;20421;-80
2023/06/07 01:27:43;;;;;;;4.10;1.90;;;;;;;;;;5093011;28;20024;-83
2023/06/07 01:30:10;;;;;;;2.97;2.20;;;;;;;;;;5091794;28;20035;-80
2023/06/07 01:32:36;;;;;;;3.40;2.30;;;;;;;;;;5075789;28;20036;-80
2023/06/07 01:35:03;;;;;;;3.05;2.10;;;;;;;;;;5095709;28;20103;-80
2023/06/07 01:37:29;;;;;;;4.82;2.00;;;;;;;;;;5095970;28;20034;-81
2023/06/07 01:39:55;;;;;;;4.65;2.20;;;;;;;;;;5078666;28;20063;-80
2023/06/07 01:42:21;;;;;;;3.55;2.20;;;;;;;;;;5095902;28;20024;-80
2023/06/07 01:44:47;;;;;;;2.60;1.90;;;;;;;;;;5095601;28;20020;-82
2023/06/07 01:47:14;;;;;;;2.83;2.10;;;;;;;;;;5078544;28;20058;-82
2023/06/07 01:49:43;;;;;;;2.30;1.80;;;;;;;;;;5095427;28;20035;-80
2023/06/07 01:52:08;;;;;;;6.07;2.10;;;;;;;;;;5095243;28;20137;-80
2023/06/07 01:54:34;;;;;;;3.58;2.22;;;;;;;;;;5095504;28;20423;-80
2023/06/07 01:57:04;;;;;;;2.85;1.80;;;;;;;;;;5095263;28;20120;-80
2023/06/07 01:59:44;;;;;;;2.88;1.80;;;;;;;;;;5096536;28;20023;-81
2023/06/07 02:02:31;;;;;;;3.53;2.20;;;;;;;;;;5096649;28;20062;-80
2023/06/07 02:05:01;;;;;;;3.28;2.00;;;;;;;;;;5095238;28;20024;-80
2023/06/07 02:07:28;;;;;;;1.90;1.70;;;;;;;;;;5094723;28;20024;-80
2023/06/07 02:09:54;;;;;;;3.10;2.22;;;;;;;;;;5078139;28;20024;-80
2023/06/07 02:12:20;;;;;;;3.08;1.80;;;;;;;;;;5096739;28;20028;-81
2023/06/07 02:14:52;;;;;;;3.67;2.25;;;;;;;;;;5094861;28;20031;-81
2023/06/07 02:17:17;;;;;;;3.15;1.80;;;;;;;;;;5095127;28;20024;-81
2023/06/07 02:19:43;;;;;;;4.05;2.10;;;;;;;;;;5096198;28;20043;-81
2023/06/07 02:22:08;;;;;;;3.72;1.80;;;;;;;;;;5094970;28;20028;-81
2023/06/07 02:24:34;;;;;;;2.70;1.88;;;;;;;;;;5078158;28;20086;-81
2023/06/07 02:27:00;;;;;;;2.88;1.90;;;;;;;;;;5095058;28;20035;-81
2023/06/07 02:29:25;;;;;;;2.97;1.98;;;;;;;;;;5095840;28;20501;-81
2023/06/07 02:31:52;;;;;;;2.80;2.03;;;;;;;;;;5078019;28;20040;-80
2023/06/07 02:34:18;;;;;;;2.80;1.90;;;;;;;;;;5077831;28;20051;-81
2023/06/07 02:36:43;;;;;;;4.18;1.95;;;;;;;;;;5094588;28;20071;-81
2023/06/07 02:39:09;;;;;;;7.07;1.80;;;;;;;;;;5094575;28;20036;-81
2023/06/07 02:41:34;;;;;;;5.70;1.90;;;;;;;;;;5094436;28;20028;-80
2023/06/07 02:44:00;;;;;;;3.60;1.77;;;;;;;;;;5093901;28;20020;-81
2023/06/07 02:46:25;;;;;;;3.25;2.00;;;;;;;;;;5094133;28;20492;-80
2023/06/07 02:48:51;;;;;;;3.50;2.15;;;;;;;;;;5095569;28;20036;-80
2023/06/07 02:51:16;;;;;;;4.07;1.90;;;;;;;;;;5095288;28;20059;-80
2023/06/07 02:53:44;;;;;;;2.80;1.85;;;;;;;;;;5095358;28;20531;-81
2023/06/07 02:56:10;;;;;;;3.05;1.92;;;;;;;;;;5094062;28;20028;-80
2023/06/07 02:58:36;;;;;;;3.45;1.83;;;;;;;;;;5094012;28;20465;-81
2023/06/07 03:01:02;;;;;;;4.32;2.17;;;;;;;;;;5093864;28;20114;-81
2023/06/07 03:03:27;;;;;;;2.22;1.73;;;;;;;;;;5093855;28;20031;-81
2023/06/07 03:05:52;;;;;;;4.35;2.30;;;;;;;;;;5095217;28;20026;-81
2023/06/07 03:08:18;;;;;;;3.80;1.75;;;;;;;;;;5095102;28;20470;-81
2023/06/07 03:10:44;;;;;;;4.18;1.73;;;;;;;;;;5093502;28;20036;-81
2023/06/07 03:13:09;;;;;;;3.22;1.63;;;;;;;;;;5093978;28;20436;-81
2023/06/07 03:15:35;;;;;;;3.67;2.00;;;;;;;;;;5094913;28;20145;-81
2023/06/07 03:18:03;;;;;;;3.95;1.88;;;;;;;;;;5077050;28;20421;-81
2023/06/07 03:20:29;;;;;;;3.85;2.08;;;;;;;;;;5094883;28;20028;-82
2023/06/07 03:22:55;;;;;;;3.40;2.00;;;;;;;;;;5093883;28;20024;-82
2023/06/07 03:25:21;;;;;;;4.38;2.03;;;;;;;;;;5093499;28;20028;-82
2023/06/07 03:27:46;;;;;;;2.63;1.73;;;;;;;;;;5095251;28;20518;-82
2023/06/07 03:30:12;;;;;;;4.13;2.13;;;;;;;;;;5094489;28;20066;-82
2023/06/07 03:32:37;;;;;;;2.88;1.88;;;;;;;;;;5076584;28;20471;-82
2023/06/07 03:35:03;;;;;;;4.05;2.35;;;;;;;;;;5093338;28;20046;-82
2023/06/07 03:37:28;;;;;;;3.58;2.20;;;;;;;;;;5094716;28;20044;-82
2023/06/07 03:39:54;;;;;;;3.95;1.90;;;;;;;;;;5093339;28;20032;-81
2023/06/07 03:42:19;;;;;;;2.80;1.98;;;;;;;;;;5094452;28;20024;-82
2023/06/07 03:44:44;;;;;;;7.90;1.77;;;;;;;;;;5094896;28;20035;-82
2023/06/07 03:47:10;;;;;;;3.63;1.88;;;;;;;;;;5093007;28;20028;-83
2023/06/07 03:49:35;;;;;;;2.95;1.85;;;;;;;;;;5094155;28;20055;-82
2023/06/07 03:52:01;;;;;;;4.65;1.90;;;;;;;;;;5093905;28;20048;-82
2023/06/07 03:54:26;;;;;;;5.63;2.25;;;;;;;;;;5093019;28;20050;-82
2023/06/07 03:56:51;;;;;;;2.67;1.80;;;;;;;;;;5092587;28;20028;-82
2023/06/07 03:59:19;;;;;;;4.55;2.08;;;;;;;;;;5093239;28;20420;-82
2023/06/07 04:01:45;;;;;;;3.22;1.83;;;;;;;;;;5094464;28;20115;-82
2023/06/07 04:04:11;;;;;;;3.35;2.42;;;;;;;;;;5093131;28;20478;-82
2023/06/07 04:06:36;;;;;;;3.40;2.10;;;;;;;;;;5093141;28;20437;-82
2023/06/07 04:09:02;;;;;;;4.35;1.83;;;;;;;;;;5076065;28;20433;-83
2023/06/07 04:11:28;;;;;;;3.00;1.73;;;;;;;;;;5094860;28;20111;-82
2023/06/07 04:13:53;;;;;;;3.97;1.83;;;;;;;;;;5093430;28;20408;-82
2023/06/07 04:16:19;;;;;;;3.03;1.60;;;;;;;;;;5077038;28;20046;-82
2023/06/07 04:18:45;;;;;;;3.75;1.70;;;;;;;;;;5094264;28;20490;-83
2023/06/07 04:21:12;;;;;;;7.05;2.88;;;;;;;;;;5094456;28;20024;-82
2023/06/07 04:23:37;;;;;;;5.30;2.60;;;;;;;;;;5093235;28;20043;-81
2023/06/07 04:26:05;;;;;;;6.45;2.47;;;;;;;;;;5093003;28;20387;-83
2023/06/07 04:28:31;;;;;;;4.60;2.40;;;;;;;;;;5093083;28;20028;-80
2023/06/07 04:30:57;;;;;;;6.68;2.75;;;;;;;;;;5093685;28;20039;-82
2023/06/07 04:33:23;;;;;;;5.78;3.03;;;;;;;;;;5076434;28;20059;-81
2023/06/07 04:35:50;;;;;;;6.65;3.03;;;;;;;;;;5092014;28;20032;-79
2023/06/07 04:38:20;;;;;;;7.45;2.85;;;;;;;;;;5093540;28;20107;-79
2023/06/07 04:40:48;;;;;;;5.45;3.13;;;;;;;;;;5075426;28;20103;-80
2023/06/07 04:43:17;;;;;;;8.95;3.35;;;;;;;;;;5091800;28;20024;-81
2023/06/07 04:45:43;;;;;;;8.95;3.72;;;;;;;;;;5092006;28;20077;-80
2023/06/07 04:48:11;;;;;;;10.68;3.95;;;;;;;;;;5091815;28;20035;-81
2023/06/07 04:50:38;;;;;;;13.63;4.28;;;;;;;;;;5091406;28;20032;-82
2023/06/07 04:53:04;;;;;;;12.48;5.13;;;;;;;;;;5074962;28;20051;-83
2023/06/07 04:55:34;;;;;;;10.98;4.35;;;;;;;;;;5091522;28;20028;-81
2023/06/07 04:58:03;;;;;;;14.70;5.18;;;;;;;;;;5074990;28;20035;-82
2023/06/07 05:00:30;;;;;;;19.25;5.55;;;;;;;;;;5091691;28;20602;-81
2023/06/07 05:02:56;;;;;;;24.05;8.00;;;;;;;;;;5074829;28;20024;-81
2023/06/07 05:05:21;;;;;;;25.70;7.70;;;;;;;;;;5074769;28;20074;-81
2023/06/07 05:07:49;;;;;;;31.98;8.10;;;;;;;;;;5095409;28;20036;-82
2023/06/07 05:10:14;;;;;;;24.88;7.85;;;;;;;;;;5096819;28;20024;-82
2023/06/07 05:12:40;;;;;;;16.02;5.57;;;;;;;;;;5096654;28;20521;-77
2023/06/07 05:15:06;;;;;;;21.55;5.05;;;;;;;;;;5096790;28;20028;-77
2023/06/07 05:17:32;;;;;;;13.30;4.88;;;;;;;;;;5096666;28;20047;-77
2023/06/07 05:19:57;;;;;;;12.82;4.72;;;;;;;;;;5096587;28;20028;-77
2023/06/07 05:22:22;;;;;;;12.40;4.22;;;;;;;;;;5095428;28;20024;-78
2023/06/07 05:24:48;;;;;;;14.93;4.13;;;;;;;;;;5096557;28;20028;-77
2023/06/07 05:27:14;;;;;;;11.23;3.78;;;;;;;;;;5095365;28;20498;-77
2023/06/07 05:29:40;;;;;;;8.45;3.90;;;;;;;;;;5095569;28;20393;-78
2023/06/07 05:32:05;;;;;;;4.85;2.85;;;;;;;;;;5097345;28;20020;-78
2023/06/07 05:34:31;;;;;;;6.22;3.00;;;;;;;;;;5095968;28;20023;-78
2023/06/07 05:36:58;;;;;;;8.38;3.42;;;;;;;;;;5095608;28;20055;-78
2023/06/07 05:39:23;;;;;;;8.43;3.40;;;;;;;;;;5096948;28;20039;-77
2023/06/07 05:41:49;;;;;;;7.70;3.13;;;;;;;;;;5096914;28;20024;-77
2023/06/07 05:44:14;;;;;;;8.25;3.20;;;;;;;;;;5095587;28;20028;-77
2023/06/07 05:46:40;;;;;;;10.32;3.58;;;;;;;;;;5096781;28;20028;-78
2023/06/07 05:49:05;;;;;;;6.57;3.22;;;;;;;;;;5095464;28;20444;-77
2023/06/07 05:51:31;;;;;;;8.25;3.10;;;;;;;;;;5074627;28;20447;-79
2023/06/07 05:53:56;;;;;;;7.85;3.17;;;;;;;;;;5092010;28;20040;-80
2023/06/07 05:56:22;;;;;;;7.72;3.10;;;;;;;;;;5087145;28;20067;-79
2023/06/07 05:58:49;;;;;;;8.73;3.03;;;;;;;;;;5096726;28;20043;-79
2023/06/07 06:01:15;;;;;;;9.23;3.20;;;;;;;;;;5085544;28;20020;-79
2023/06/07 06:03:41;;;;;;;8.93;3.10;;;;;;;;;;5074934;28;20106;-79
2023/06/07 06:06:14;;;;;;;8.02;2.88;;;;;;;;;;5081760;28;20028;-80
2023/06/07 06:08:40;;;;;;;8.38;3.63;;;;;;;;;;5095131;28;20047;-80
2023/06/07 06:11:05;;;;;;;8.70;3.20;;;;;;;;;;5095182;28;20028;-77
2023/06/07 06:13:32;;;;;;;8.15;2.95;;;;;;;;;;5096286;28;20125;-78
2023/06/07 06:15:58;;;;;;;7.72;2.60;;;;;;;;;;5095108;28;20028;-78
2023/06/07 06:18:23;;;;;;;7.88;2.85;;;;;;;;;;5094570;28;20348;-79
2023/06/07 06:20:48;;;;;;;5.18;2.80;;;;;;;;;;5095756;28;20644;-78
2023/06/07 06:23:14;;;;;;;9.60;3.03;;;;;;;;;;5094813;28;20047;-78
2023/06/07 06:25:40;;;;;;;8.43;2.80;;;;;;;;;;5071644;28;20027;-79
2023/06/07 06:28:05;;;;;;;5.55;2.35;;;;;;;;;;5078352;28;20032;-79
2023/06/07 06:30:31;;;;;;;6.32;2.70;;;;;;;;;;5091032;28;20029;-78
2023/06/07 06:32:56;;;;;;;9.20;2.45;;;;;;;;;;5095064;28;20536;-79
2023/06/07 06:35:22;;;;;;;6.47;2.42;;;;;;;;;;5078038;28;20051;-78
2023/06/07 06:37:47;;;;;;;8.30;3.00;;;;;;;;;;5060942;28;20027;-78
2023/06/07 06:40:13;;;;;;;7.43;3.00;;;;;;;;;;5094672;28;20024;-79
2023/06/07 06:42:38;;;;;;;7.20;2.72;;;;;;;;;;5096336;28;20024;-79
2023/06/07 06:45:05;;;;;;;7.72;3.05;;;;;;;;;;5077599;28;20165;-79
2023/06/07 06:47:30;;;;;;;6.28;2.45;;;;;;;;;;5077702;28;20114;-79
2023/06/07 06:49:58;;;;;;;6.18;2.13;;;;;;;;;;5094480;28;20419;-80
2023/06/07 06:52:24;;;;;;;8.88;2.88;;;;;;;;;;5094182;28;20040;-79
2023/06/07 06:54:49;;;;;;;7.40;2.78;;;;;;;;;;5094734;28;20415;-79
2023/06/07 06:57:15;;;;;;;7.15;2.70;;;;;;;;;;5095566;28;20157;-78
2023/06/07 06:59:40;;;;;;;7.10;2.72;;;;;;;;;;5093993;28;20035;-79
2023/06/07 07:02:06;;;;;;;15.88;3.13;;;;;;;;;;5094191;28;20103;-78
2023/06/07 07:04:31;;;;;;;6.15;2.40;;;;;;;;;;5095275;28;20100;-78
2023/06/07 07:06:57;;;;;;;4.80;2.47;;;;;;;;;;5094307;28;20028;-78
2023/06/07 07:09:22;;;;;;;6.40;2.90;;;;;;;;;;5093716;28;20058;-78
2023/06/07 07:11:48;;;;;;;13.88;2.67;;;;;;;;;;5077016;28;20119;-79
2023/06/07 07:14:13;;;;;;;8.00;2.78;;;;;;;;;;5095592;28;20055;-79
2023/06/07 07:16:39;;;;;;;6.45;2.50;;;;;;;;;;5094298;28;20032;-79
2023/06/07 07:19:04;;;;;;;11.27;3.05;;;;;;;;;;5095684;28;20432;-79
2023/06/07 07:21:30;;;;;;;10.00;2.35;;;;;;;;;;5077611;28;20044;-80
2023/06/07 07:23:55;;;;;;;5.93;2.50;;;;;;;;;;5093841;28;20478;-80
2023/06/07 07:26:21;;;;;;;7.55;2.47;;;;;;;;;;5095465;28;20024;-79
2023/06/07 07:28:46;;;;;;;10.50;2.80;;;;;;;;;;5094597;28;20031;-80
2023/06/07 07:31:13;;;;;;;6.22;2.42;;;;;;;;;;5076169;28;20024;-81
2023/06/07 07:33:39;;;;;;;9.60;3.40;;;;;;;;;;5094708;28;20028;-80
2023/06/07 07:36:05;;;;;;;6.00;2.45;;;;;;;;;;5095097;28;20020;-79
2023/06/07 07:38:37;;;;;;;10.95;2.90;;;;;;;;;;5096580;28;20390;-80
2023/06/07 07:41:04;;;;;;;7.72;3.00;;;;;;;;;;5097538;28;20054;-80
2023/06/07 07:43:29;;;;;;;6.68;2.50;;;;;;;;;;5077783;28;20146;-78
2023/06/07 07:45:55;;;;;;;11.15;2.40;;;;;;;;;;5094237;28;20449;-79
2023/06/07 07:48:20;;;;;;;3.88;1.90;;;;;;;;;;5094110;28;20028;-79
2023/06/07 07:50:48;;;;;;;9.07;2.78;;;;;;;;;;5078363;28;20466;-79
2023/06/07 07:53:15;;;;;;;9.65;2.95;;;;;;;;;;5094988;28;20056;-79
2023/06/07 07:55:40;;;;;;;5.60;2.38;;;;;;;;;;5076840;28;20123;-79
2023/06/07 07:58:07;;;;;;;14.40;2.75;;;;;;;;;;5076515;28;20119;-79
2023/06/07 08:00:33;;;;;;;6.97;2.67;;;;;;;;;;5094617;28;20032;-79
2023/06/07 08:02:59;;;;;;;5.47;2.22;;;;;;;;;;5093415;28;20035;-80
2023/06/07 08:05:24;;;;;;;5.05;2.90;;;;;;;;;;5093465;28;20028;-79
2023/06/07 08:07:49;;;;;;;6.45;2.30;;;;;;;;;;5093172;28;20066;-79
2023/06/07 08:10:15;;;;;;;4.53;2.22;;;;;;;;;;5095432;28;20024;-78
2023/06/07 08:12:43;;;;;;;4.13;2.35;;;;;;;;;;5093726;28;20028;-79
2023/06/07 08:15:09;;;;;;;7.20;2.50;;;;;;;;;;5093558;28;20032;-79
2023/06/07 08:17:34;;;;;;;8.27;2.53;;;;;;;;;;5093791;28;20036;-79
2023/06/07 08:20:00;;;;;;;6.60;2.60;;;;;;;;;;5059555;28;20031;-79
2023/06/07 08:22:26;;;;;;;7.55;2.80;;;;;;;;;;5094391;28;20039;-79
2023/06/07 08:24:51;;;;;;;5.05;2.35;;;;;;;;;;5093945;28;20024;-78
2023/06/07 08:27:17;;;;;;;7.10;2.80;;;;;;;;;;5094216;28;20055;-79
2023/06/07 08:29:42;;;;;;;6.25;2.22;;;;;;;;;;5092927;28;20110;-78
2023/06/07 08:32:08;;;;;;;10.95;2.65;;;;;;;;;;5094131;28;20062;-78
2023/06/07 08:34:33;;;;;;;9.88;2.55;;;;;;;;;;5092457;28;20471;-78
2023/06/07 08:37:00;;;;;;;6.00;2.35;;;;;;;;;;5094099;28;20043;-78
2023/06/07 08:39:25;;;;;;;6.50;2.40;;;;;;;;;;5092401;28;20028;-78
2023/06/07 08:41:51;;;;;;;7.55;2.65;;;;;;;;;;5092068;28;20027;-77
2023/06/07 08:44:16;;;;;;;6.57;2.25;;;;;;;;;;5093618;28;20428;-77
2023/06/07 08:46:42;;;;;;;5.45;2.30;;;;;;;;;;5092965;28;20036;-78
2023/06/07 08:49:10;;;;;;;6.20;2.55;;;;;;;;;;5075543;28;20513;-78
2023/06/07 08:51:36;;;;;;;5.47;2.53;;;;;;;;;;5093498;28;20185;-78
2023/06/07 08:54:03;;;;;;;6.47;2.60;;;;;;;;;;5093686;28;20109;-78
2023/06/07 08:56:33;;;;;;;9.15;1.90;;;;;;;;;;5092440;28;20490;-78
2023/06/07 08:58:59;;;;;;;5.95;2.17;;;;;;;;;;5075997;28;20027;-79
2023/06/07 09:01:25;;;;;;;5.30;2.53;;;;;;;;;;5093642;28;20028;-78
2023/06/07 09:03:54;;;;;;;9.95;2.42;;;;;;;;;;5092037;28;20453;-78
2023/06/07 09:06:21;;;;;;;11.13;3.03;;;;;;;;;;5075277;28;20127;-78
2023/06/07 09:08:47;;;;;;;5.30;2.10;;;;;;;;;;5075174;28;20047;-78
2023/06/07 09:11:13;;;;;;;4.45;2.22;;;;;;;;;;5092048;28;20066;-77
2023/06/07 09:13:39;;;;;;;6.97;2.33;;;;;;;;;;5075165;28;20028;-78
2023/06/07 09:16:04;;;;;;;8.30;3.17;;;;;;;;;;5092118;28;20387;-78
2023/06/07 09:18:55;;;;;;;5.53;2.47;;;;;;;;;;5075174;28;20498;-78
2023/06/07 09:21:21;;;;;;;6.75;2.40;;;;;;;;;;5092221;28;20020;-78
2023/06/07 09:23:47;;;;;;;5.55;2.15;;;;;;;;;;5092475;28;20089;-78
2023/06/07 09:26:14;;;;;;;5.60;2.30;;;;;;;;;;5093123;28;20051;-79
2023/06/07 09:28:40;;;;;;;9.77;3.03;;;;;;;;;;5092053;28;20501;-78
2023/06/07 09:31:05;;;;;;;5.30;2.60;;;;;;;;;;5075061;28;20032;-79
2023/06/07 09:33:35;;;;;;;4.53;2.10;;;;;;;;;;5091944;28;20024;-79
2023/06/07 09:36:05;;;;;;;4.63;2.35;;;;;;;;;;5092410;28;20032;-79
2023/06/07 09:38:30;;;;;;;8.52;2.53;;;;;;;;;;5091944;28;20039;-79
2023/06/07 09:40:58;;;;;;;8.55;2.30;;;;;;;;;;5091826;28;20425;-78
2023/06/07 09:43:25;;;;;;;13.05;2.78;;;;;;;;;;5092034;28;20043;-80
2023/06/07 09:45:56;;;;;;;8.23;3.22;;;;;;;;;;5091897;28;20389;-78
2023/06/07 09:48:22;;;;;;;6.75;2.83;;;;;;;;;;5091782;28;20127;-79
2023/06/07 09:50:55;;;;;;;6.53;2.55;;;;;;;;;;5075150;28;20040;-79
2023/06/07 09:53:21;;;;;;;3.42;2.25;;;;;;;;;;5092962;28;20043;-78
2023/06/07 09:55:46;;;;;;;7.05;2.58;;;;;;;;;;5095775;28;20039;-79
2023/06/07 09:58:22;;;;;;;5.72;1.92;;;;;;;;;;5095392;28;20090;-78
2023/06/07 10:00:48;;;;;;;6.07;2.72;;;;;;;;;;5096720;28;20020;-79
2023/06/07 10:03:15;;;;;;;5.38;2.50;;;;;;;;;;5095133;28;20035;-80
2023/06/07 10:05:41;;;;;;;4.68;2.25;;;;;;;;;;5095374;28;20024;-79
2023/06/07 10:08:08;;;;;;;4.50;2.20;;;;;;;;;;5078772;28;20035;-79
2023/06/07 10:10:35;;;;;;;6.82;2.45;;;;;;;;;;5095100;28;20032;-79
2023/06/07 10:13:03;;;;;;;5.75;2.25;;;;;;;;;;5095837;28;20131;-79
2023/06/07 10:15:29;;;;;;;7.00;2.20;;;;;;;;;;5078295;28;20024;-78
2023/06/07 10:18:05;;;;;;;5.63;2.50;;;;;;;;;;5096295;28;20442;-78
2023/06/07 10:20:35;;;;;;;8.48;2.60;;;;;;;;;;5078145;28;20480;-79
2023/06/07 10:23:06;;;;;;;6.75;2.72;;;;;;;;;;5095015;28;20030;-78
2023/06/07 10:26:04;;;;;;;4.20;2.15;;;;;;;;;;5096392;28;20068;-79
2023/06/07 10:28:52;;;;;;;6.78;2.28;;;;;;;;;;5079647;28;20463;-78
2023/06/07 10:31:18;;;;;;;3.80;1.98;;;;;;;;;;5094815;28;20016;-78
2023/06/07 10:33:44;;;;;;;7.68;2.80;;;;;;;;;;5094974;28;20031;-78
2023/06/07 10:36:10;;;;;;;7.32;2.28;;;;;;;;;;5094971;28;20028;-78
2023/06/07 10:38:35;;;;;;;8.70;2.70;;;;;;;;;;5095888;28;20035;-79
2023/06/07 10:41:05;;;;;;;5.82;2.83;;;;;;;;;;5094553;28;20032;-79
2023/06/07 10:43:31;;;;;;;8.27;2.97;;;;;;;;;;5094577;28;20032;-78
2023/06/07 10:46:19;;;;;;;6.95;2.60;;;;;;;;;;5094452;28;20482;-79
2023/06/07 10:48:45;;;;;;;6.00;2.30;;;;;;;;;;5094415;28;20016;-79
2023/06/07 10:51:11;;;;;;;12.48;3.17;;;;;;;;;;5094299;28;20390;-78
2023/06/07 10:53:55;;;;;;;6.05;2.67;;;;;;;;;;5077459;28;20028;-77
2023/06/07 10:56:31;;;;;;;7.10;2.60;;;;;;;;;;5094716;28;20024;-78
2023/06/07 10:59:18;;;;;;;6.70;2.83;;;;;;;;;;5077418;28;20060;-78
2023/06/07 11:01:46;;;;;;;7.15;3.08;;;;;;;;;;5094001;28;20470;-77
2023/06/07 11:04:30;;;;;;;4.93;2.17;;;;;;;;;;5094743;28;20356;-78
2023/06/07 11:07:17;;;;;;;9.40;2.78;;;;;;;;;;5095539;28;20020;-77
2023/06/07 11:09:43;;;;;;;5.68;2.42;;;;;;;;;;5094024;28;20069;-77
2023/06/07 11:12:11;;;;;;;11.88;2.92;;;;;;;;;;5077154;28;20020;-77
2023/06/07 11:14:36;;;;;;;10.52;2.75;;;;;;;;;;5093894;28;20036;-78
2023/06/07 11:17:04;;;;;;;5.40;2.53;;;;;;;;;;5077283;28;20121;-77
2023/06/07 11:19:55;;;;;;;6.07;2.90;;;;;;;;;;5093867;28;20039;-80
2023/06/07 11:22:20;;;;;;;10.85;2.75;;;;;;;;;;5077381;28;20035;-79
2023/06/07 11:24:47;;;;;;;4.32;2.28;;;;;;;;;;5093701;28;20032;-78
2023/06/07 11:27:18;;;;;;;6.88;2.67;;;;;;;;;;5095993;28;20393;-79
2023/06/07 11:29:44;;;;;;;5.03;2.40;;;;;;;;;;5077107;28;20028;-79
2023/06/07 11:32:10;;;;;;;7.10;2.50;;;;;;;;;;5076825;28;20028;-79
2023/06/07 11:34:35;;;;;;;5.18;2.30;;;;;;;;;;5076792;28;20039;-79
2023/06/07 11:37:16;;;;;;;6.78;2.80;;;;;;;;;;5095210;28;20031;-79
2023/06/07 11:39:41;;;;;;;5.20;1.98;;;;;;;;;;5076812;28;20072;-79
2023/06/07 11:42:07;;;;;;;7.45;2.40;;;;;;;;;;5093825;28;20085;-80
2023/06/07 11:44:37;;;;;;;9.48;2.97;;;;;;;;;;5093717;28;20024;-81
2023/06/07 11:47:05;;;;;;;9.80;2.72;;;;;;;;;;5093476;28;20024;-78
2023/06/07 11:49:31;;;;;;;5.28;2.80;;;;;;;;;;5077292;28;20047;-78
2023/06/07 11:51:57;;;;;;;5.20;2.08;;;;;;;;;;5076049;28;20059;-78
2023/06/07 11:54:25;;;;;;;6.85;2.40;;;;;;;;;;5076524;28;20024;-78
2023/06/07 11:56:50;;;;;;;5.57;2.47;;;;;;;;;;5094481;28;20390;-78
2023/06/07 11:59:19;;;;;;;5.78;2.50;;;;;;;;;;5059636;28;20115;-77
2023/06/07 12:01:46;;;;;;;8.32;2.45;;;;;;;;;;5059363;28;20506;-77
2023/06/07 12:04:11;;;;;;;3.47;2.28;;;;;;;;;;5094303;28;20040;-77
2023/06/07 12:06:37;;;;;;;7.55;2.58;;;;;;;;;;5076342;28;20436;-77
2023/06/07 12:09:02;;;;;;;4.80;2.30;;;;;;;;;;5059372;28;20461;-78
2023/06/07 12:11:28;;;;;;;7.95;3.17;;;;;;;;;;5059149;28;20043;-77
2023/06/07 12:13:53;;;;;;;8.20;2.60;;;;;;;;;;5075942;28;20027;-78
2023/06/07 12:16:21;;;;;;;5.25;2.30;;;;;;;;;;5093494;28;20073;-77
2023/06/07 12:18:47;;;;;;;7.28;2.58;;;;;;;;;;5059754;28;20032;-78
2023/06/07 12:21:15;;;;;;;5.05;2.38;;;;;;;;;;5094802;28;20466;-78
2023/06/07 12:23:50;;;;;;;7.85;3.05;;;;;;;;;;5060032;28;20036;-78
2023/06/07 12:26:19;;;;;;;4.40;2.85;;;;;;;;;;5076489;28;20095;-78
2023/06/07 12:28:44;;;;;;;5.90;2.55;;;;;;;;;;5093947;28;20479;-77
2023/06/07 12:31:19;;;;;;;5.97;2.67;;;;;;;;;;5093980;28;20081;-77
2023/06/07 12:34:07;;;;;;;5.10;2.30;;;;;;;;;;5094129;28;20020;-76
2023/06/07 12:36:34;;;;;;;5.68;2.40;;;;;;;;;;5093651;28;20526;-78
2023/06/07 12:39:04;;;;;;;6.15;2.53;;;;;;;;;;5093777;28;20114;-77
2023/06/07 12:41:30;;;;;;;7.57;2.35;;;;;;;;;;5075459;28;20012;-77
2023/06/07 12:43:58;;;;;;;5.53;2.10;;;;;;;;;;5075590;28;20034;-78
2023/06/07 12:46:24;;;;;;;8.18;2.45;;;;;;;;;;5075675;28;20094;-78
2023/06/07 12:48:49;;;;;;;5.28;2.58;;;;;;;;;;5094564;28;20576;-77
2023/06/07 12:51:15;;;;;;;5.90;2.60;;;;;;;;;;5075998;28;20032;-75
2023/06/07 12:53:40;;;;;;;8.07;2.67;;;;;;;;;;5042215;28;20055;-77
2023/06/07 12:56:06;;;;;;;6.20;2.38;;;;;;;;;;5093910;28;20054;-76
2023/06/07 12:58:32;;;;;;;6.72;2.65;;;;;;;;;;5076218;28;20364;-76
2023/06/07 13:00:57;;;;;;;6.25;2.90;;;;;;;;;;5094156;28;20028;-76
2023/06/07 13:03:24;;;;;;;4.88;2.38;;;;;;;;;;5060587;28;20032;-75
2023/06/07 13:05:49;;;;;;;8.60;2.42;;;;;;;;;;5076931;28;20027;-75
2023/06/07 13:08:15;;;;;;;8.65;2.55;;;;;;;;;;5076099;28;20028;-75
2023/06/07 13:10:41;;;;;;;5.07;2.28;;;;;;;;;;5077244;28;20087;-76
2023/06/07 13:13:07;;;;;;;5.22;2.78;;;;;;;;;;5094608;28;20032;-76
2023/06/07 13:15:32;;;;;;;5.20;2.50;;;;;;;;;;5093390;28;20028;-76
2023/06/07 13:17:57;;;;;;;7.65;2.30;;;;;;;;;;5075376;28;20449;-76
2023/06/07 13:20:23;;;;;;;3.35;2.22;;;;;;;;;;5058492;28;20028;-76
2023/06/07 13:22:48;;;;;;;4.72;2.38;;;;;;;;;;5075284;28;20448;-76
2023/06/07 13:25:14;;;;;;;3.15;2.25;;;;;;;;;;5075303;28;20486;-76
2023/06/07 13:27:41;;;;;;;7.38;2.65;;;;;;;;;;5076029;28;20482;-76
2023/06/07 13:30:07;;;;;;;5.50;2.53;;;;;;;;;;5079619;28;20028;-76
2023/06/07 13:32:33;;;;;;;5.95;2.78;;;;;;;;;;5062465;28;20524;-76
2023/06/07 13:34:59;;;;;;;5.20;2.90;;;;;;;;;;5097211;28;20032;-76
2023/06/07 13:37:24;;;;;;;5.93;2.85;;;;;;;;;;5078981;28;20032;-75
2023/06/07 13:39:49;;;;;;;6.57;3.03;;;;;;;;;;5079090;28;20035;-77
2023/06/07 13:42:16;;;;;;;5.70;2.47;;;;;;;;;;5062119;28;20124;-76
2023/06/07 13:44:41;;;;;;;8.85;3.05;;;;;;;;;;5079137;28;20048;-76
2023/06/07 13:47:07;;;;;;;7.90;2.97;;;;;;;;;;5078882;28;20055;-76
2023/06/07 13:49:33;;;;;;;5.13;2.50;;;;;;;;;;5079137;28;20080;-76
2023/06/07 13:51:59;;;;;;;7.13;2.53;;;;;;;;;;5078503;28;20048;-77
2023/06/07 13:54:24;;;;;;;6.70;3.10;;;;;;;;;;5078796;28;20024;-76
2023/06/07 13:56:50;;;;;;;8.88;2.90;;;;;;;;;;5079116;28;20052;-77
2023/06/07 13:59:15;;;;;;;6.50;2.60;;;;;;;;;;5078678;28;20024;-77
2023/06/07 14:01:41;;;;;;;6.55;2.20;;;;;;;;;;5096744;28;20020;-76
2023/06/07 14:04:07;;;;;;;4.68;2.22;;;;;;;;;;5078077;28;20028;-77
2023/06/07 14:06:33;;;;;;;7.22;2.92;;;;;;;;;;5078909;28;20474;-77
2023/06/07 14:08:58;;;;;;;6.20;2.53;;;;;;;;;;5096370;28;20397;-77
2023/06/07 14:11:25;;;;;;;7.40;2.80;;;;;;;;;;5096434;28;20028;-76
2023/06/07 14:13:51;;;;;;;6.28;2.58;;;;;;;;;;5061640;28;20448;-76
2023/06/07 14:16:18;;;;;;;7.32;3.30;;;;;;;;;;5096234;28;20035;-76
2023/06/07 14:18:44;;;;;;;5.05;2.65;;;;;;;;;;5096243;28;20028;-77
2023/06/07 14:21:09;;;;;;;4.60;2.47;;;;;;;;;;5078832;28;20036;-76
2023/06/07 14:23:35;;;;;;;7.22;2.50;;;;;;;;;;5096360;28;20035;-76
2023/06/07 14:26:00;;;;;;;4.93;2.60;;;;;;;;;;5096174;28;20080;-76
2023/06/07 14:28:25;;;;;;;5.68;2.58;;;;;;;;;;5096254;28;20050;-76
2023/06/07 14:30:51;;;;;;;5.50;2.72;;;;;;;;;;5095861;28;20387;-76
2023/06/07 14:33:16;;;;;;;10.73;3.58;;;;;;;;;;5077777;28;20061;-76
2023/06/07 14:35:42;;;;;;;6.15;2.60;;;;;;;;;;5096134;28;20031;-76
2023/06/07 14:38:07;;;;;;;4.10;2.50;;;;;;;;;;5077767;28;20028;-76
2023/06/07 14:40:32;;;;;;;5.55;2.65;;;;;;;;;;5095459;28;20552;-76